sensor_id;sensor_type;location;lat;lon;timestamp;pressure;altitude;pressure_sealevel;temperature;humidity
48774;BME280;34576;0.000;0.000;2024-03-07T00:01:31;97030.88;;;16.80;67.17
48774;BME280;34576;0.000;0.000;2024-03-07T00:08:32;97024.47;;;16.81;67.06
48774;BME280;34576;0.000;0.000;2024-03-07T00:15:32;97014.41;;;16.83;67.32
48774;BME280;34576;0.000;0.000;2024-03-07T00:22:32;97018.16;;;16.87;67.95
48774;BME280;34576;0.000;0.000;2024-03-07T00:29:32;97013.34;;;16.84;67.62
48774;BME280;34576;0.000;0.000;2024-03-07T00:36:35;97012.81;;;16.82;67.15
48774;BME280;34576;0.000;0.000;2024-03-07T00:43:35;96998.72;;;16.82;67.16
48774;BME280;34576;0.000;0.000;2024-03-07T00:50:36;97004.03;;;16.82;66.89
48774;BME280;34576;0.000;0.000;2024-03-07T00:57:36;97008.03;;;16.84;66.70
48774;BME280;34576;0.000;0.000;2024-03-07T01:04:36;96998.22;;;16.85;66.45
48774;BME280;34576;0.000;0.000;2024-03-07T01:11:37;96985.19;;;16.83;66.29
48774;BME280;34576;0.000;0.000;2024-03-07T01:18:37;96974.56;;;16.83;66.11
48774;BME280;34576;0.000;0.000;2024-03-07T01:25:38;96971.91;;;16.83;66.05
48774;BME280;34576;0.000;0.000;2024-03-07T01:32:39;96966.06;;;16.86;66.47
48774;BME280;34576;0.000;0.000;2024-03-07T01:39:39;96951.44;;;16.84;66.11
48774;BME280;34576;0.000;0.000;2024-03-07T01:46:39;96936.03;;;16.86;66.02
48774;BME280;34576;0.000;0.000;2024-03-07T01:53:41;96935.22;;;16.85;66.42
48774;BME280;34576;0.000;0.000;2024-03-07T02:00:42;96932.06;;;16.88;66.55
48774;BME280;34576;0.000;0.000;2024-03-07T02:07:43;96918.00;;;16.88;66.22
48774;BME280;34576;0.000;0.000;2024-03-07T02:14:44;96916.38;;;16.87;66.53
48774;BME280;34576;0.000;0.000;2024-03-07T02:21:44;96905.75;;;16.87;66.42
48774;BME280;34576;0.000;0.000;2024-03-07T02:28:45;96902.06;;;16.88;66.19
48774;BME280;34576;0.000;0.000;2024-03-07T02:35:45;96886.91;;;16.88;66.74
48774;BME280;34576;0.000;0.000;2024-03-07T02:42:45;96901.78;;;16.89;67.15
48774;BME280;34576;0.000;0.000;2024-03-07T02:49:46;96881.88;;;17.02;66.23
48774;BME280;34576;0.000;0.000;2024-03-07T02:56:46;96877.09;;;16.94;67.51
48774;BME280;34576;0.000;0.000;2024-03-07T03:03:46;96879.75;;;16.94;67.58
48774;BME280;34576;0.000;0.000;2024-03-07T03:10:47;96871.50;;;16.96;67.89
48774;BME280;34576;0.000;0.000;2024-03-07T03:17:47;96865.41;;;16.95;67.84
48774;BME280;34576;0.000;0.000;2024-03-07T03:24:48;96867.78;;;16.97;67.96
48774;BME280;34576;0.000;0.000;2024-03-07T03:31:48;96864.63;;;16.95;68.33
48774;BME280;34576;0.000;0.000;2024-03-07T03:38:49;96857.16;;;16.97;68.66
48774;BME280;34576;0.000;0.000;2024-03-07T03:45:49;96854.50;;;16.97;68.96
48774;BME280;34576;0.000;0.000;2024-03-07T03:52:49;96840.16;;;16.98;68.72
48774;BME280;34576;0.000;0.000;2024-03-07T03:59:50;96834.59;;;16.99;68.71
48774;BME280;34576;0.000;0.000;2024-03-07T04:06:50;96822.63;;;16.97;68.70
48774;BME280;34576;0.000;0.000;2024-03-07T04:13:50;96822.09;;;17.00;68.59
48774;BME280;34576;0.000;0.000;2024-03-07T04:20:51;96806.97;;;17.00;69.26
48774;BME280;34576;0.000;0.000;2024-03-07T04:27:51;96816.50;;;17.01;69.02
48774;BME280;34576;0.000;0.000;2024-03-07T04:34:51;96817.31;;;17.02;69.43
48774;BME280;34576;0.000;0.000;2024-03-07T04:41:52;96816.78;;;17.00;69.52
48774;BME280;34576;0.000;0.000;2024-03-07T04:48:52;96807.22;;;17.04;69.19
48774;BME280;34576;0.000;0.000;2024-03-07T04:55:53;96802.44;;;17.06;69.44
48774;BME280;34576;0.000;0.000;2024-03-07T05:02:53;96806.69;;;17.02;69.90
48774;BME280;34576;0.000;0.000;2024-03-07T05:09:54;96805.09;;;17.01;70.12
48774;BME280;34576;0.000;0.000;2024-03-07T05:16:54;96811.19;;;17.01;69.95
48774;BME280;34576;0.000;0.000;2024-03-07T05:24:08;96805.09;;;17.01;69.99
48774;BME280;34576;0.000;0.000;2024-03-07T05:31:08;96796.03;;;17.07;70.19
48774;BME280;34576;0.000;0.000;2024-03-07T05:38:12;96803.75;;;17.24;60.50
48774;BME280;34576;0.000;0.000;2024-03-07T05:45:12;96804.00;;;15.97;58.41
48774;BME280;34576;0.000;0.000;2024-03-07T05:52:15;96822.28;;;11.63;56.46
48774;BME280;34576;0.000;0.000;2024-03-07T05:59:15;96822.19;;;11.34;56.43
48774;BME280;34576;0.000;0.000;2024-03-07T06:06:17;96827.50;;;11.04;55.65
48774;BME280;34576;0.000;0.000;2024-03-07T06:13:17;96816.47;;;14.35;53.23
48774;BME280;34576;0.000;0.000;2024-03-07T06:20:17;96808.75;;;15.47;54.64
48774;BME280;34576;0.000;0.000;2024-03-07T06:27:24;96810.22;;;15.70;55.97
48774;BME280;34576;0.000;0.000;2024-03-07T06:34:37;96814.31;;;15.83;56.75
48774;BME280;34576;0.000;0.000;2024-03-07T06:41:38;96804.25;;;15.91;57.58
48774;BME280;34576;0.000;0.000;2024-03-07T06:48:39;96803.75;;;15.94;58.16
48774;BME280;34576;0.000;0.000;2024-03-07T06:55:40;96817.00;;;15.94;58.92
48774;BME280;34576;0.000;0.000;2024-03-07T07:02:40;96821.53;;;15.98;59.15
48774;BME280;34576;0.000;0.000;2024-03-07T07:09:41;96815.97;;;16.00;59.53
48774;BME280;34576;0.000;0.000;2024-03-07T07:16:41;96808.56;;;16.02;59.81
48774;BME280;34576;0.000;0.000;2024-03-07T07:23:45;96810.69;;;16.05;59.97
48774;BME280;34576;0.000;0.000;2024-03-07T07:30:45;96807.50;;;16.08;60.33
48774;BME280;34576;0.000;0.000;2024-03-07T07:37:50;96804.84;;;16.08;60.38
48774;BME280;34576;0.000;0.000;2024-03-07T07:44:53;96808.03;;;16.10;60.60
48774;BME280;34576;0.000;0.000;2024-03-07T07:51:54;96802.72;;;16.10;60.68
48774;BME280;34576;0.000;0.000;2024-03-07T07:58:54;96801.16;;;16.14;60.63
48774;BME280;34576;0.000;0.000;2024-03-07T08:05:55;96799.59;;;16.13;60.96
48774;BME280;34576;0.000;0.000;2024-03-07T08:12:55;96794.81;;;16.15;60.73
48774;BME280;34576;0.000;0.000;2024-03-07T08:19:56;96781.53;;;16.15;60.98
48774;BME280;34576;0.000;0.000;2024-03-07T08:26:56;96769.88;;;16.16;61.23
48774;BME280;34576;0.000;0.000;2024-03-07T08:33:56;96778.88;;;16.15;61.24
48774;BME280;34576;0.000;0.000;2024-03-07T08:40:57;96770.91;;;16.15;61.19
48774;BME280;34576;0.000;0.000;2024-03-07T08:47:57;96770.41;;;16.13;61.44
48774;BME280;34576;0.000;0.000;2024-03-07T08:54:57;96771.72;;;16.21;61.43
48774;BME280;34576;0.000;0.000;2024-03-07T09:01:58;96762.72;;;16.27;61.30
48774;BME280;34576;0.000;0.000;2024-03-07T09:08:59;96756.06;;;16.19;61.43
48774;BME280;34576;0.000;0.000;2024-03-07T09:16:00;96763.50;;;16.22;61.54
48774;BME280;34576;0.000;0.000;2024-03-07T09:23:02;96753.41;;;16.19;61.58
48774;BME280;34576;0.000;0.000;2024-03-07T09:30:03;96747.56;;;16.22;59.96
48774;BME280;34576;0.000;0.000;2024-03-07T09:37:04;96736.94;;;16.17;60.50
48774;BME280;34576;0.000;0.000;2024-03-07T09:44:12;96744.41;;;16.20;60.62
48774;BME280;34576;0.000;0.000;2024-03-07T09:51:14;96740.13;;;16.25;60.28
48774;BME280;34576;0.000;0.000;2024-03-07T09:58:17;96737.50;;;16.30;59.69
48774;BME280;34576;0.000;0.000;2024-03-07T10:05:19;96729.56;;;16.35;59.71
48774;BME280;34576;0.000;0.000;2024-03-07T10:12:22;96733.06;;;15.72;53.44
48774;BME280;34576;0.000;0.000;2024-03-07T10:19:22;96727.16;;;16.28;58.49
48774;BME280;34576;0.000;0.000;2024-03-07T10:26:23;96723.19;;;16.31;58.54
48774;BME280;34576;0.000;0.000;2024-03-07T10:33:27;96729.56;;;16.35;58.46
48774;BME280;34576;0.000;0.000;2024-03-07T10:40:28;96713.09;;;16.38;58.55
48774;BME280;34576;0.000;0.000;2024-03-07T10:47:28;96712.03;;;16.34;58.58
48774;BME280;34576;0.000;0.000;2024-03-07T10:54:39;96713.09;;;16.38;58.55
48774;BME280;34576;0.000;0.000;2024-03-07T11:01:53;96704.09;;;16.39;58.54
48774;BME280;34576;0.000;0.000;2024-03-07T11:08:57;96702.22;;;16.39;58.68
48774;BME280;34576;0.000;0.000;2024-03-07T11:15:57;96700.88;;;16.37;58.68
48774;BME280;34576;0.000;0.000;2024-03-07T11:23:00;96690.25;;;16.37;58.65
48774;BME280;34576;0.000;0.000;2024-03-07T11:30:06;96690.81;;;16.39;58.88
48774;BME280;34576;0.000;0.000;2024-03-07T11:37:08;96680.72;;;16.41;58.83
48774;BME280;34576;0.000;0.000;2024-03-07T11:44:17;96672.22;;;16.39;59.07
48774;BME280;34576;0.000;0.000;2024-03-07T11:51:18;96669.31;;;16.41;58.82
48774;BME280;34576;0.000;0.000;2024-03-07T11:58:18;96671.69;;;16.42;58.87
48774;BME280;34576;0.000;0.000;2024-03-07T12:05:21;96669.81;;;16.43;58.89
48774;BME280;34576;0.000;0.000;2024-03-07T12:12:21;96661.88;;;16.43;58.92
48774;BME280;34576;0.000;0.000;2024-03-07T12:19:22;96654.53;;;15.66;55.20
48774;BME280;34576;0.000;0.000;2024-03-07T12:26:23;96646.47;;;16.45;58.24
48774;BME280;34576;0.000;0.000;2024-03-07T12:33:25;96646.72;;;16.48;58.68
48774;BME280;34576;0.000;0.000;2024-03-07T12:40:26;96646.22;;;16.46;59.03
48774;BME280;34576;0.000;0.000;2024-03-07T12:47:30;96636.13;;;16.48;59.25
48774;BME280;34576;0.000;0.000;2024-03-07T12:54:30;96634.25;;;16.49;59.07
48774;BME280;34576;0.000;0.000;2024-03-07T13:01:31;96631.84;;;16.47;59.35
48774;BME280;34576;0.000;0.000;2024-03-07T13:08:33;96615.13;;;16.47;59.46
48774;BME280;34576;0.000;0.000;2024-03-07T13:15:34;96622.06;;;16.48;59.32
48774;BME280;34576;0.000;0.000;2024-03-07T13:22:40;96622.84;;;16.48;59.56
48774;BME280;34576;0.000;0.000;2024-03-07T13:29:42;96611.44;;;16.48;59.74
48774;BME280;34576;0.000;0.000;2024-03-07T13:36:45;96616.75;;;16.48;59.80
48774;BME280;34576;0.000;0.000;2024-03-07T13:43:45;96616.75;;;16.48;59.78
48774;BME280;34576;0.000;0.000;2024-03-07T13:50:46;96612.22;;;16.48;59.74
48774;BME280;34576;0.000;0.000;2024-03-07T13:57:51;96600.81;;;16.48;59.64
48774;BME280;34576;0.000;0.000;2024-03-07T14:05:13;96604.78;;;16.50;59.52
48774;BME280;34576;0.000;0.000;2024-03-07T14:33:54;96584.06;;;16.47;59.35
48774;BME280;34576;0.000;0.000;2024-03-07T14:41:00;96585.41;;;16.45;59.29
48774;BME280;34576;0.000;0.000;2024-03-07T14:48:00;96580.91;;;16.45;59.20
48774;BME280;34576;0.000;0.000;2024-03-07T14:55:01;96579.56;;;16.48;59.23
48774;BME280;34576;0.000;0.000;2024-03-07T15:02:03;96573.72;;;16.46;59.34
48774;BME280;34576;0.000;0.000;2024-03-07T15:09:08;96579.28;;;16.44;59.41
48774;BME280;34576;0.000;0.000;2024-03-07T15:16:09;96567.34;;;16.47;59.05
48774;BME280;34576;0.000;0.000;2024-03-07T15:23:10;96578.25;;;16.45;59.21
48774;BME280;34576;0.000;0.000;2024-03-07T15:30:11;96567.88;;;16.44;59.05
48774;BME280;34576;0.000;0.000;2024-03-07T15:37:14;96557.28;;;16.44;58.98
48774;BME280;34576;0.000;0.000;2024-03-07T15:44:14;96559.09;;;16.43;59.22
48774;BME280;34576;0.000;0.000;2024-03-07T15:51:15;96553.00;;;16.43;59.15
48774;BME280;34576;0.000;0.000;2024-03-07T15:58:15;96551.97;;;16.44;59.02
48774;BME280;34576;0.000;0.000;2024-03-07T16:05:17;96556.44;;;16.43;59.13
48774;BME280;34576;0.000;0.000;2024-03-07T16:12:18;96546.91;;;16.42;59.06
48774;BME280;34576;0.000;0.000;2024-03-07T16:19:18;96558.06;;;16.44;59.08
48774;BME280;34576;0.000;0.000;2024-03-07T16:26:22;96564.69;;;16.42;59.14
48774;BME280;34576;0.000;0.000;2024-03-07T16:33:22;96553.28;;;16.41;58.93
48774;BME280;34576;0.000;0.000;2024-03-07T16:40:25;96562.84;;;16.42;59.07
48774;BME280;34576;0.000;0.000;2024-03-07T16:47:26;96550.91;;;16.39;58.98
48774;BME280;34576;0.000;0.000;2024-03-07T16:54:26;96547.72;;;16.37;58.99
48774;BME280;34576;0.000;0.000;2024-03-07T17:01:26;96549.03;;;16.40;58.61
48774;BME280;34576;0.000;0.000;2024-03-07T17:08:26;96551.94;;;16.38;58.75
48774;BME280;34576;0.000;0.000;2024-03-07T17:15:27;96550.13;;;16.39;59.07
48774;BME280;34576;0.000;0.000;2024-03-07T17:22:27;96549.28;;;16.38;58.96
48774;BME280;34576;0.000;0.000;2024-03-07T17:29:28;96558.34;;;16.37;58.80
48774;BME280;34576;0.000;0.000;2024-03-07T17:36:28;96562.31;;;16.35;58.84
48774;BME280;34576;0.000;0.000;2024-03-07T17:43:32;96563.38;;;16.34;58.58
48774;BME280;34576;0.000;0.000;2024-03-07T17:50:33;96559.94;;;16.33;58.49
48774;BME280;34576;0.000;0.000;2024-03-07T17:57:33;96549.59;;;16.32;58.39
48774;BME280;34576;0.000;0.000;2024-03-07T18:04:33;96551.97;;;16.33;58.63
48774;BME280;34576;0.000;0.000;2024-03-07T18:11:34;96546.66;;;16.33;58.60
48774;BME280;34576;0.000;0.000;2024-03-07T18:18:34;96533.66;;;16.32;58.76
48774;BME280;34576;0.000;0.000;2024-03-07T18:25:34;96521.44;;;16.31;58.91
48774;BME280;34576;0.000;0.000;2024-03-07T18:32:37;96514.53;;;16.30;59.13
48774;BME280;34576;0.000;0.000;2024-03-07T18:39:39;96499.41;;;16.30;58.83
48774;BME280;34576;0.000;0.000;2024-03-07T18:46:42;96507.63;;;16.29;58.66
48774;BME280;34576;0.000;0.000;2024-03-07T18:53:42;96503.13;;;16.29;58.44
48774;BME280;34576;0.000;0.000;2024-03-07T19:00:43;96500.75;;;16.28;58.33
48774;BME280;34576;0.000;0.000;2024-03-07T19:07:44;96489.59;;;16.26;58.26
48774;BME280;34576;0.000;0.000;2024-03-07T19:14:45;96482.44;;;16.26;57.86
48774;BME280;34576;0.000;0.000;2024-03-07T19:21:45;96476.31;;;16.26;57.89
48774;BME280;34576;0.000;0.000;2024-03-07T19:28:46;96477.94;;;16.27;57.94
48774;BME280;34576;0.000;0.000;2024-03-07T19:35:48;96480.84;;;16.25;58.23
48774;BME280;34576;0.000;0.000;2024-03-07T19:42:55;96477.38;;;16.25;58.17
48774;BME280;34576;0.000;0.000;2024-03-07T19:49:55;96482.44;;;16.26;57.86
48774;BME280;34576;0.000;0.000;2024-03-07T19:56:55;96475.81;;;16.24;57.66
48774;BME280;34576;0.000;0.000;2024-03-07T20:04:04;96469.41;;;16.25;57.42
48774;BME280;34576;0.000;0.000;2024-03-07T20:11:04;96455.63;;;16.22;57.38
48774;BME280;34576;0.000;0.000;2024-03-07T20:18:05;96441.31;;;16.24;57.41
48774;BME280;34576;0.000;0.000;2024-03-07T20:25:05;96448.19;;;16.25;57.31
48774;BME280;34576;0.000;0.000;2024-03-07T20:32:06;96445.03;;;16.22;57.14
48774;BME280;34576;0.000;0.000;2024-03-07T20:39:09;96445.00;;;16.33;56.54
48774;BME280;34576;0.000;0.000;2024-03-07T20:46:10;96432.50;;;16.44;56.34
48774;BME280;34576;0.000;0.000;2024-03-07T20:53:10;96436.75;;;16.45;56.32
48774;BME280;34576;0.000;0.000;2024-03-07T21:00:10;96435.09;;;16.49;55.95
48774;BME280;34576;0.000;0.000;2024-03-07T21:07:14;96419.44;;;16.47;56.18
48774;BME280;34576;0.000;0.000;2024-03-07T21:14:14;96423.44;;;16.50;55.93
48774;BME280;34576;0.000;0.000;2024-03-07T21:21:15;96416.28;;;16.50;55.68
48774;BME280;34576;0.000;0.000;2024-03-07T21:28:15;96407.50;;;16.50;55.60
48774;BME280;34576;0.000;0.000;2024-03-07T21:35:15;96412.81;;;16.50;55.50
48774;BME280;34576;0.000;0.000;2024-03-07T21:42:16;96403.53;;;16.47;56.74
48774;BME280;34576;0.000;0.000;2024-03-07T21:49:18;96406.72;;;16.49;55.88
48774;BME280;34576;0.000;0.000;2024-03-07T21:56:28;96388.91;;;16.50;55.79
48774;BME280;34576;0.000;0.000;2024-03-07T22:03:28;96383.88;;;16.48;55.78
48774;BME280;34576;0.000;0.000;2024-03-07T22:10:29;96376.97;;;16.47;56.58
48774;BME280;34576;0.000;0.000;2024-03-07T22:17:29;96366.91;;;16.49;57.85
48774;BME280;34576;0.000;0.000;2024-03-07T22:24:29;96365.84;;;16.50;58.60
48774;BME280;34576;0.000;0.000;2024-03-07T22:31:36;96357.88;;;16.50;59.68
48774;BME280;34576;0.000;0.000;2024-03-07T22:38:41;96348.03;;;16.51;60.09
48774;BME280;34576;0.000;0.000;2024-03-07T22:45:42;96343.78;;;16.50;60.37
48774;BME280;34576;0.000;0.000;2024-03-07T22:52:42;96337.91;;;16.53;60.70
48774;BME280;34576;0.000;0.000;2024-03-07T22:59:43;96326.50;;;16.52;61.09
48774;BME280;34576;0.000;0.000;2024-03-07T23:06:43;96320.69;;;16.50;61.28
48774;BME280;34576;0.000;0.000;2024-03-07T23:13:44;96314.31;;;16.51;61.37
48774;BME280;34576;0.000;0.000;2024-03-07T23:20:44;96299.19;;;16.52;61.34
48774;BME280;34576;0.000;0.000;2024-03-07T23:27:45;96298.38;;;16.51;61.79
48774;BME280;34576;0.000;0.000;2024-03-07T23:34:47;96299.97;;;16.52;61.68
48774;BME280;34576;0.000;0.000;2024-03-07T23:41:47;96306.88;;;16.53;61.75
48774;BME280;34576;0.000;0.000;2024-03-07T23:48:48;96305.28;;;16.52;61.84
48774;BME280;34576;0.000;0.000;2024-03-07T23:55:52;96304.66;;;16.66;61.82
